Time;durP1;ratioP1;P1;durP2;ratioP2;P2;SDS_P1;SDS_P2;PMS_P1;PMS_P2;Temp;Humidity;BMP_temperature;BMP_pressure;BME280_temperature;BME280_humidity;BME280_pressure;Samples;Min_cycle;Max_cycle;Signal;HPM_P1;HPM_P2
2023/09/29 00:01:39;;;;;;;2.27;0.93;;;;;;;16.48;83.57;95810.34;4334758;32;20277;-64
2023/09/29 00:04:06;;;;;;;2.03;1.17;;;;;;;16.46;84.98;95809.87;4364179;32;20214;-64
2023/09/29 00:06:33;;;;;;;1.70;1.27;;;;;;;16.46;85.33;95815.22;4346982;32;20283;-64
2023/09/29 00:08:59;;;;;;;1.13;1.13;;;;;;;16.40;85.89;95815.72;4372649;32;20185;-64
2023/09/29 00:11:27;;;;;;;0.77;0.77;;;;;;;16.53;85.15;95809.37;4354793;32;20180;-64
2023/09/29 00:13:54;;;;;;;0.70;0.70;;;;;;;16.38;84.94;95807.22;4353076;32;20207;-64
2023/09/29 00:16:19;;;;;;;0.50;0.50;;;;;;;16.50;84.82;95810.81;4321647;32;20197;-64
2023/09/29 00:18:48;;;;;;;1.20;1.20;;;;;;;16.48;84.94;95815.69;4348984;32;20261;-64
2023/09/29 00:21:14;;;;;;;0.70;0.70;;;;;;;16.52;85.01;95812.38;4376598;32;20181;-64
2023/09/29 00:23:40;;;;;;;1.03;1.03;;;;;;;16.44;85.13;95816.63;4358880;32;20271;-64
2023/09/29 00:26:07;;;;;;;1.60;1.50;;;;;;;16.31;85.52;95818.41;4363639;32;20189;-64
2023/09/29 00:28:35;;;;;;;0.83;0.83;;;;;;;16.42;85.04;95810.81;4348245;32;20184;-64
2023/09/29 00:31:15;;;;;;;0.87;0.87;;;;;;;16.30;84.99;95819.50;4338274;32;20189;-64
2023/09/29 00:33:42;;;;;;;1.20;1.10;;;;;;;16.21;85.09;95824.06;4350521;32;20314;-64
2023/09/29 00:36:12;;;;;;;1.20;1.00;;;;;;;16.26;85.52;95826.59;4335231;32;20236;-64
2023/09/29 00:38:38;;;;;;;1.10;1.10;;;;;;;16.25;85.83;95825.00;4341453;32;20239;-64
2023/09/29 00:41:06;;;;;;;1.30;1.20;;;;;;;16.22;85.54;95814.16;4354904;32;20275;-64
2023/09/29 00:43:35;;;;;;;0.70;0.70;;;;;;;16.32;84.41;95819.97;4353207;32;20204;-64
2023/09/29 00:46:06;;;;;;;5.20;1.50;;;;;;;16.29;84.30;95817.94;4339484;32;20185;-64
2023/09/29 00:48:33;;;;;;;1.17;1.17;;;;;;;16.12;85.58;95820.62;4375518;32;20185;-64
2023/09/29 00:51:21;;;;;;;0.93;0.93;;;;;;;15.89;85.19;95821.88;4362220;32;20181;-64
2023/09/29 00:53:52;;;;;;;0.70;0.70;;;;;;;16.06;85.04;95816.53;4350015;32;20248;-64
2023/09/29 00:56:25;;;;;;;1.73;1.63;;;;;;;16.04;85.89;95806.12;4374674;32;20191;-63
2023/09/29 00:58:52;;;;;;;1.07;1.07;;;;;;;15.68;86.62;95809.13;4320880;32;20178;-63
2023/09/29 01:01:20;;;;;;;1.90;1.60;;;;;;;15.72;86.12;95807.41;4359225;32;20200;-64
2023/09/29 01:03:50;;;;;;;0.80;0.80;;;;;;;15.89;86.87;95803.16;4361560;32;20199;-61
2023/09/29 01:06:22;;;;;;;0.77;0.77;;;;;;;15.84;86.08;95811.31;4378737;32;20169;-64
2023/09/29 01:08:50;;;;;;;0.90;0.90;;;;;;;15.93;86.16;95807.56;4378150;32;20207;-65
2023/09/29 01:11:18;;;;;;;1.40;1.37;;;;;;;16.13;85.62;95806.12;4368270;32;20207;-65
2023/09/29 01:13:45;;;;;;;0.97;0.97;;;;;;;15.90;86.29;95808.19;4341215;32;20203;-64
2023/09/29 01:16:13;;;;;;;0.87;0.87;;;;;;;15.88;86.30;95809.59;4360613;32;20242;-64
2023/09/29 01:18:41;;;;;;;0.53;0.53;;;;;;;15.82;86.44;95804.41;4329635;32;20172;-64
2023/09/29 01:21:07;;;;;;;0.97;0.97;;;;;;;15.82;86.00;95809.75;4369222;32;20181;-64
2023/09/29 01:23:34;;;;;;;1.10;1.00;;;;;;;15.92;85.91;95802.53;4377851;32;20217;-64
2023/09/29 01:26:08;;;;;;;0.87;0.83;;;;;;;15.78;86.08;95808.81;4322927;32;20186;-64
2023/09/29 01:28:35;;;;;;;1.30;1.20;;;;;;;15.92;86.06;95810.56;4349648;32;20192;-64
2023/09/29 01:31:00;;;;;;;0.77;0.77;;;;;;;15.93;85.44;95806.78;4378022;32;20189;-64
2023/09/29 01:33:27;;;;;;;0.90;0.90;;;;;;;15.99;85.54;95800.97;4375834;32;20268;-64
2023/09/29 01:35:53;;;;;;;0.97;0.93;;;;;;;15.98;85.39;95804.75;4346497;32;20189;-65
2023/09/29 01:38:20;;;;;;;1.17;1.13;;;;;;;15.94;85.95;95797.66;4351024;32;20184;-63
2023/09/29 01:40:47;;;;;;;1.07;0.97;;;;;;;15.83;85.37;95807.84;4365954;32;20203;-64
2023/09/29 01:43:15;;;;;;;1.17;1.07;;;;;;;15.88;85.47;95804.25;4353114;32;20181;-64
2023/09/29 01:45:43;;;;;;;0.80;0.80;;;;;;;16.01;86.17;95795.25;4373366;32;20363;-64
2023/09/29 01:48:11;;;;;;;0.77;0.77;;;;;;;16.05;85.63;95806.91;4357183;32;20276;-64
2023/09/29 01:50:40;;;;;;;0.70;0.70;;;;;;;16.05;84.22;95805.03;4373743;32;20224;-64
2023/09/29 01:53:11;;;;;;;1.13;1.03;;;;;;;15.97;84.29;95802.37;4366117;32;20262;-64
2023/09/29 01:55:41;;;;;;;1.23;1.20;;;;;;;16.04;84.71;95800.00;4367264;32;20185;-64
2023/09/29 01:58:09;;;;;;;2.10;1.53;;;;;;;16.17;84.67;95795.59;4359127;32;20208;-64
2023/09/29 02:00:35;;;;;;;4.00;1.37;;;;;;;16.16;84.58;95794.81;4355957;32;20173;-64
2023/09/29 02:03:06;;;;;;;2.77;1.30;;;;;;;16.19;84.54;95791.50;4363479;32;20181;-64
2023/09/29 02:05:31;;;;;;;0.97;0.97;;;;;;;16.07;85.26;95792.13;4374780;32;20185;-64
2023/09/29 02:07:58;;;;;;;1.40;1.30;;;;;;;16.12;84.19;95794.66;4354437;32;20180;-65
2023/09/29 02:10:26;;;;;;;0.83;0.83;;;;;;;16.06;84.87;95800.47;4354052;32;20201;-64
2023/09/29 02:12:58;;;;;;;0.93;0.93;;;;;;;16.03;84.67;95796.53;4338545;32;20192;-64
2023/09/29 02:15:28;;;;;;;1.40;0.83;;;;;;;15.96;84.61;95801.59;4317181;32;20189;-64
2023/09/29 02:17:58;;;;;;;1.07;0.80;;;;;;;15.95;85.35;95793.87;4341681;32;20193;-65
2023/09/29 02:20:41;;;;;;;1.00;1.00;;;;;;;15.75;84.38;95796.06;4363393;32;20198;-64
2023/09/29 02:23:07;;;;;;;0.73;0.73;;;;;;;15.92;85.36;95792.59;4363675;32;20185;-64
2023/09/29 02:25:51;;;;;;;1.20;1.20;;;;;;;15.85;85.06;95799.53;4367093;32;20181;-64
2023/09/29 02:28:38;;;;;;;1.67;1.57;;;;;;;15.88;85.15;95798.91;4361396;32;20262;-64
2023/09/29 02:31:14;;;;;;;1.07;1.00;;;;;;;15.74;85.33;95799.84;4333994;32;20232;-64
2023/09/29 02:33:41;;;;;;;0.73;0.73;;;;;;;15.53;86.15;95798.84;4361664;32;20185;-64
2023/09/29 02:36:08;;;;;;;1.07;1.07;;;;;;;15.75;86.14;95806.78;4356727;32;20200;-64
2023/09/29 02:38:36;;;;;;;1.03;1.03;;;;;;;15.84;85.68;95816.69;4323651;32;20219;-64
2023/09/29 02:41:07;;;;;;;1.20;1.07;;;;;;;15.79;85.62;95812.28;4353660;32;20190;-64
2023/09/29 02:43:52;;;;;;;0.47;0.47;;;;;;;15.82;84.73;95814.31;4327197;32;20199;-63
2023/09/29 02:46:37;;;;;;;0.40;0.40;;;;;;;15.79;85.74;95813.06;4359311;32;20177;-64
2023/09/29 02:49:04;;;;;;;2.57;0.80;;;;;;;15.78;85.96;95816.84;4349928;32;20193;-64
2023/09/29 02:51:55;;;;;;;0.60;0.60;;;;;;;15.80;85.43;95819.19;4350408;32;20192;-63
2023/09/29 02:54:21;;;;;;;0.90;0.90;;;;;;;15.93;85.44;95807.56;4363154;32;20226;-63
2023/09/29 02:57:03;;;;;;;0.80;0.80;;;;;;;15.87;84.96;95818.72;4368015;32;20192;-64
2023/09/29 02:59:33;;;;;;;0.93;0.93;;;;;;;15.80;85.89;95816.50;4352060;32;20315;-64
2023/09/29 03:02:16;;;;;;;1.13;1.13;;;;;;;15.79;85.88;95814.97;4337035;32;20200;-64
2023/09/29 03:04:43;;;;;;;0.60;0.60;;;;;;;15.78;86.38;95816.84;4356123;32;20193;-64
2023/09/29 03:07:10;;;;;;;1.30;1.23;;;;;;;15.71;85.82;95815.72;4371389;32;20355;-64
2023/09/29 03:09:36;;;;;;;3.87;1.53;;;;;;;15.42;85.56;95824.28;4351603;32;20208;-64
2023/09/29 03:12:03;;;;;;;1.07;1.07;;;;;;;15.65;86.50;95825.78;4359117;32;20192;-64
2023/09/29 03:14:41;;;;;;;0.80;0.80;;;;;;;15.63;85.92;95828.00;4346315;32;20238;-64
2023/09/29 03:17:09;;;;;;;0.50;0.50;;;;;;;15.74;86.65;95826.59;4356614;32;20208;-64
2023/09/29 03:19:36;;;;;;;0.80;0.80;;;;;;;15.64;86.13;95826.88;4359753;32;20201;-64
2023/09/29 03:22:13;;;;;;;1.13;0.97;;;;;;;15.78;85.92;95832.13;4359272;32;20264;-64
2023/09/29 03:24:55;;;;;;;1.70;1.60;;;;;;;15.69;85.42;95825.97;4360447;32;20189;-63
2023/09/29 03:27:20;;;;;;;0.90;0.90;;;;;;;15.73;86.79;95825.03;4343049;32;20271;-64
2023/09/29 03:29:47;;;;;;;8.33;1.20;;;;;;;15.67;86.33;95830.81;4359468;32;20184;-64
2023/09/29 03:32:16;;;;;;;0.27;0.27;;;;;;;15.56;86.83;95833.03;4348365;32;20349;-64
2023/09/29 03:34:43;;;;;;;0.77;0.77;;;;;;;15.64;86.01;95837.59;4332798;32;20189;-64
2023/09/29 03:37:08;;;;;;;1.50;1.40;;;;;;;15.59;85.28;95823.59;4356766;32;20289;-64
2023/09/29 03:39:34;;;;;;;0.60;0.60;;;;;;;15.51;85.65;95825.13;4347906;32;20184;-64
2023/09/29 03:42:05;;;;;;;0.50;0.50;;;;;;;15.67;86.06;95823.59;4352709;32;20204;-64
2023/09/29 03:44:33;;;;;;;0.77;0.77;;;;;;;15.66;86.87;95818.56;4352509;32;20199;-64
2023/09/29 03:47:00;;;;;;;1.13;1.03;;;;;;;15.71;85.64;95823.75;4354248;32;20251;-64
2023/09/29 03:49:45;;;;;;;0.63;0.63;;;;;;;15.79;85.53;95833.69;4362754;32;20244;-64
2023/09/29 03:52:10;;;;;;;0.87;0.87;;;;;;;15.83;85.54;95834.63;4359099;32;20181;-64
2023/09/29 03:54:36;;;;;;;0.63;0.63;;;;;;;15.79;84.88;95828.34;4360137;32;20200;-64
2023/09/29 03:57:04;;;;;;;1.37;1.20;;;;;;;15.45;85.90;95829.81;4359761;32;20185;-64
2023/09/29 03:59:30;;;;;;;1.10;1.10;;;;;;;15.61;85.75;95821.38;4362835;32;20185;-64
2023/09/29 04:01:57;;;;;;;0.93;0.93;;;;;;;15.52;84.65;95824.00;4374676;32;20195;-64
2023/09/29 04:04:23;;;;;;;1.57;1.47;;;;;;;15.51;84.97;95822.44;4376756;32;20180;-63
2023/09/29 04:06:49;;;;;;;0.50;0.50;;;;;;;15.75;86.22;95820.16;4359821;32;20191;-63
2023/09/29 04:09:15;;;;;;;1.13;1.10;;;;;;;15.79;85.72;95823.75;4367645;32;20188;-64
2023/09/29 04:11:42;;;;;;;1.07;0.97;;;;;;;15.62;86.35;95831.75;4375744;32;20222;-64
2023/09/29 04:14:09;;;;;;;1.03;1.03;;;;;;;15.56;86.12;95827.69;4358544;32;20196;-64
2023/09/29 04:16:40;;;;;;;2.00;1.50;;;;;;;15.58;85.90;95825.47;4350304;32;20266;-64
2023/09/29 04:19:07;;;;;;;1.07;1.03;;;;;;;15.62;86.00;95829.09;4330292;32;20236;-64
2023/09/29 04:21:41;;;;;;;1.57;1.47;;;;;;;15.59;86.15;95829.69;4352499;32;20185;-64
2023/09/29 04:24:08;;;;;;;1.00;1.00;;;;;;;15.57;86.42;95833.81;4354474;32;20181;-64
2023/09/29 04:26:35;;;;;;;1.03;0.73;;;;;;;15.52;85.43;95840.06;4356811;32;20181;-64
2023/09/29 04:29:07;;;;;;;1.33;1.23;;;;;;;15.45;85.54;95837.03;4366566;32;20195;-64
2023/09/29 04:31:33;;;;;;;1.17;0.93;;;;;;;15.54;85.63;95835.19;4363941;32;20207;-64
2023/09/29 04:34:00;;;;;;;0.73;0.73;;;;;;;15.52;85.24;95840.06;4375489;32;20238;-64
2023/09/29 04:36:53;;;;;;;0.97;0.97;;;;;;;15.46;85.72;95847.44;4333519;32;20256;-64
2023/09/29 04:39:22;;;;;;;1.57;0.80;;;;;;;15.42;85.42;95840.34;4364055;32;20180;-63
2023/09/29 04:41:48;;;;;;;1.03;1.03;;;;;;;15.51;85.68;95843.03;4351893;32;20187;-65
2023/09/29 04:44:14;;;;;;;0.93;0.80;;;;;;;15.52;85.11;95839.28;4345445;32;20184;-65
2023/09/29 04:46:42;;;;;;;1.23;1.23;;;;;;;15.37;85.73;95843.19;4341472;32;20344;-65
2023/09/29 04:49:09;;;;;;;1.33;1.23;;;;;;;15.39;85.46;95847.09;4362118;32;20203;-64
2023/09/29 04:51:36;;;;;;;15.30;1.07;;;;;;;15.37;85.09;95843.97;4374874;32;20227;-65
2023/09/29 04:54:04;;;;;;;0.57;0.57;;;;;;;15.37;86.30;95849.31;4370636;32;20269;-65
2023/09/29 04:56:31;;;;;;;0.83;0.83;;;;;;;15.35;86.05;95843.50;4353139;32;20177;-64
2023/09/29 04:58:58;;;;;;;0.60;0.60;;;;;;;15.33;86.54;95845.69;4340131;32;20185;-65
2023/09/29 05:01:27;;;;;;;1.87;1.07;;;;;;;15.43;85.46;95841.91;4362518;32;20177;-64
2023/09/29 05:04:06;;;;;;;1.30;1.20;;;;;;;15.27;85.63;95846.13;4350192;32;20173;-65
2023/09/29 05:06:33;;;;;;;5.80;1.50;;;;;;;15.40;85.92;95847.87;4367553;32;20189;-64
2023/09/29 05:09:00;;;;;;;1.30;1.20;;;;;;;15.47;85.52;95843.66;4342900;32;20220;-64
2023/09/29 05:11:32;;;;;;;0.90;0.90;;;;;;;15.46;85.00;95850.09;4346599;32;20205;-64
2023/09/29 05:13:57;;;;;;;0.63;0.63;;;;;;;15.48;85.07;95847.91;4363178;32;20181;-64
2023/09/29 05:16:24;;;;;;;1.60;1.27;;;;;;;15.42;85.36;95853.72;4363400;32;20203;-64
2023/09/29 05:18:53;;;;;;;1.13;1.13;;;;;;;15.47;84.68;95850.91;4362769;32;20220;-63
2023/09/29 05:21:24;;;;;;;0.73;0.73;;;;;;;15.49;85.07;95851.38;4357348;32;20193;-63
2023/09/29 05:23:51;;;;;;;0.70;0.70;;;;;;;15.53;83.89;95855.00;4360651;32;20203;-64
2023/09/29 05:26:18;;;;;;;1.03;1.03;;;;;;;15.45;84.46;95859.22;4336656;32;20185;-64
2023/09/29 05:28:45;;;;;;;1.60;1.33;;;;;;;15.51;85.32;95859.09;4322498;32;20189;-64
2023/09/29 05:31:11;;;;;;;0.93;0.93;;;;;;;15.51;85.20;95859.88;4333005;32;20195;-64
2023/09/29 05:33:37;;;;;;;1.90;1.43;;;;;;;15.52;84.31;95866.03;4349519;32;20205;-64
2023/09/29 05:36:06;;;;;;;0.77;0.77;;;;;;;15.52;84.85;95861.47;4342469;32;20185;-64
2023/09/29 05:38:37;;;;;;;0.97;0.97;;;;;;;15.58;84.90;95864.81;4359424;32;20229;-64
2023/09/29 05:41:03;;;;;;;0.70;0.70;;;;;;;15.55;84.84;95865.41;4369557;32;20185;-64
2023/09/29 05:43:30;;;;;;;4.10;1.20;;;;;;;15.51;84.61;95870.56;4363374;32;20306;-64
2023/09/29 05:45:56;;;;;;;0.40;0.40;;;;;;;15.44;85.36;95870.22;4336105;32;20186;-64
2023/09/29 05:48:23;;;;;;;4.40;1.40;;;;;;;15.37;85.08;95876.06;4350527;32;20177;-64
2023/09/29 05:50:52;;;;;;;0.77;0.77;;;;;;;15.51;85.17;95881.28;4356454;32;20248;-64
2023/09/29 05:53:19;;;;;;;1.23;1.20;;;;;;;15.50;83.86;95876.22;4361373;32;20185;-64
2023/09/29 05:55:50;;;;;;;0.83;0.83;;;;;;;15.44;84.52;95875.59;4350257;32;20181;-64
2023/09/29 05:58:15;;;;;;;0.67;0.67;;;;;;;15.50;84.11;95870.87;4355449;32;20265;-64
2023/09/29 06:00:46;;;;;;;1.20;1.10;;;;;;;15.30;84.04;95874.91;4381044;32;20181;-65
2023/09/29 06:03:13;;;;;;;1.53;1.43;;;;;;;15.42;84.39;95883.91;4380264;32;20181;-64
2023/09/29 06:05:39;;;;;;;1.03;0.97;;;;;;;15.31;84.55;95884.50;4372998;32;20246;-64
2023/09/29 06:08:08;;;;;;;1.13;1.03;;;;;;;15.48;85.56;95888.03;4348426;32;20192;-64
2023/09/29 06:10:33;;;;;;;1.10;1.10;;;;;;;15.57;84.53;95885.41;4364186;32;20180;-64
2023/09/29 06:12:59;;;;;;;0.73;0.73;;;;;;;15.42;84.38;95891.94;4372785;32;20338;-64
2023/09/29 06:15:26;;;;;;;1.30;1.20;;;;;;;15.62;84.52;95893.28;4353613;32;20189;-64
2023/09/29 06:17:53;;;;;;;0.97;0.97;;;;;;;15.66;84.38;95893.44;4342471;32;20201;-63
2023/09/29 06:20:19;;;;;;;2.23;1.17;;;;;;;15.70;84.88;95900.56;4350121;32;20188;-64
2023/09/29 06:22:46;;;;;;;4.53;1.53;;;;;;;15.68;85.72;95894.72;4330717;32;20251;-66
2023/09/29 06:25:17;;;;;;;3.60;1.33;;;;;;;15.74;85.45;95900.72;4359520;32;20224;-66
2023/09/29 06:27:44;;;;;;;0.80;0.80;;;;;;;15.96;88.82;95902.50;4336918;32;20267;-66
2023/09/29 06:30:11;;;;;;;6.43;1.50;;;;;;;16.15;87.40;95895.75;4344220;32;20264;-66
2023/09/29 06:32:38;;;;;;;0.57;0.57;;;;;;;16.34;85.54;95895.44;4355310;32;20189;-65
2023/09/29 06:35:11;;;;;;;3.43;1.20;;;;;;;16.44;82.83;95887.06;4361845;32;20228;-66
2023/09/29 06:37:41;;;;;;;1.03;0.93;;;;;;;16.46;79.40;95884.84;4358226;32;20184;-66
2023/09/29 06:40:11;;;;;;;1.10;1.00;;;;;;;16.78;81.93;95888.97;4360909;32;20249;-66
2023/09/29 06:42:38;;;;;;;1.00;1.00;;;;;;;16.82;79.80;95889.12;4364252;32;20188;-66
2023/09/29 06:45:09;;;;;;;1.13;1.13;;;;;;;16.94;79.56;95888.44;4376239;32;20221;-66
2023/09/29 06:47:35;;;;;;;0.60;0.60;;;;;;;16.90;77.34;95896.31;4349940;32;20193;-66
2023/09/29 06:50:04;;;;;;;1.30;1.30;;;;;;;16.83;77.06;95899.50;4361129;32;20193;-66
2023/09/29 06:52:31;;;;;;;0.77;0.77;;;;;;;16.84;76.71;95898.38;4342212;32;20247;-66
2023/09/29 06:54:59;;;;;;;1.30;1.20;;;;;;;16.99;77.37;95894.44;4353747;32;20204;-65
2023/09/29 06:57:24;;;;;;;2.43;1.77;;;;;;;16.95;77.21;95898.84;4364344;32;20177;-68
2023/09/29 06:59:52;;;;;;;1.13;1.13;;;;;;;17.12;80.71;95898.78;4363773;32;20197;-63
2023/09/29 07:02:19;;;;;;;0.97;0.97;;;;;;;17.02;78.17;95901.84;4378313;32;20192;-65
2023/09/29 07:04:47;;;;;;;1.70;1.03;;;;;;;16.72;78.56;95903.62;4370200;32;20208;-63
2023/09/29 07:07:14;;;;;;;1.27;1.23;;;;;;;16.69;78.71;95914.19;4358274;32;20184;-64
2023/09/29 07:09:40;;;;;;;1.30;1.20;;;;;;;16.49;79.26;95918.25;4368568;32;20207;-64
2023/09/29 07:12:06;;;;;;;1.73;1.63;;;;;;;16.38;80.15;95914.34;4328492;32;20185;-66
2023/09/29 07:14:37;;;;;;;1.23;1.23;;;;;;;16.33;80.94;95923.31;4347293;32;20202;-64
2023/09/29 07:17:04;;;;;;;1.17;1.17;;;;;;;16.34;80.85;95924.88;4328106;32;20231;-65
2023/09/29 07:19:32;;;;;;;1.23;1.20;;;;;;;16.37;81.13;95924.25;4335097;32;20270;-64
2023/09/29 07:22:01;;;;;;;1.20;1.20;;;;;;;16.40;81.58;95929.00;4356111;32;20204;-65
2023/09/29 07:24:28;;;;;;;1.43;1.33;;;;;;;16.45;81.10;95931.50;4367135;32;20200;-64
2023/09/29 07:26:54;;;;;;;9.70;1.00;;;;;;;16.55;80.62;95937.66;4359164;32;20195;-64
2023/09/29 07:29:21;;;;;;;1.53;1.33;;;;;;;16.64;80.90;95938.44;4364499;32;20193;-64
2023/09/29 07:31:48;;;;;;;0.90;0.90;;;;;;;16.68;80.89;95942.06;4367452;32;20251;-65
2023/09/29 07:34:18;;;;;;;0.93;0.93;;;;;;;16.70;81.08;95943.34;4364267;32;20181;-72
2023/09/29 07:36:45;;;;;;;3.63;1.77;;;;;;;16.75;82.19;95935.16;4342043;32;20180;-68
2023/09/29 07:39:14;;;;;;;1.23;1.23;;;;;;;17.78;82.62;95944.00;4333222;32;20355;-67
2023/09/29 07:41:41;;;;;;;3.43;3.23;;;;;;;18.59;79.27;95940.16;4347590;32;20271;-67
2023/09/29 07:44:12;;;;;;;1.70;1.60;;;;;;;19.10;75.91;95936.25;4368329;32;20200;-68
2023/09/29 07:46:40;;;;;;;1.73;1.60;;;;;;;19.41;73.98;95938.44;4355855;32;20204;-69
2023/09/29 07:49:08;;;;;;;2.13;1.93;;;;;;;19.70;73.46;95935.59;4358024;32;20189;-67
2023/09/29 07:51:35;;;;;;;1.87;1.77;;;;;;;19.84;72.34;95938.72;4277351;32;20233;-67
2023/09/29 07:54:02;;;;;;;6.20;3.00;;;;;;;19.97;71.84;95939.50;4331645;32;20245;-68
2023/09/29 07:56:29;;;;;;;1.77;1.67;;;;;;;20.06;70.86;95942.09;4352534;32;20208;-67
2023/09/29 07:59:03;;;;;;;1.67;1.63;;;;;;;20.10;69.16;95948.38;4351639;32;20207;-69
2023/09/29 08:01:30;;;;;;;3.33;1.80;;;;;;;20.25;70.80;95947.66;4361068;32;20182;-68
2023/09/29 08:03:58;;;;;;;1.47;1.47;;;;;;;20.28;70.10;95952.38;4354988;32;20192;-67
2023/09/29 08:06:25;;;;;;;1.90;1.00;;;;;;;20.32;70.51;95955.97;4338460;32;20177;-68
2023/09/29 08:08:51;;;;;;;1.13;1.07;;;;;;;20.28;69.69;95952.38;4341999;32;20185;-67
2023/09/29 08:11:16;;;;;;;1.63;1.50;;;;;;;20.25;69.19;95955.75;4373104;32;20268;-68
2023/09/29 08:13:43;;;;;;;5.20;1.57;;;;;;;20.20;69.72;95961.37;4360951;32;20181;-68
2023/09/29 08:16:11;;;;;;;1.10;1.10;;;;;;;20.34;70.05;95952.94;4381957;32;21664;-68
2023/09/29 08:18:39;;;;;;;1.80;1.70;;;;;;;19.99;68.23;95963.41;4352336;32;20196;-68
2023/09/29 08:21:04;;;;;;;1.40;1.30;;;;;;;20.32;69.78;95955.97;4335861;32;20185;-68
2023/09/29 08:23:31;;;;;;;1.20;1.13;;;;;;;20.40;69.24;95965.06;4350408;32;20187;-67
2023/09/29 08:25:58;;;;;;;0.70;0.70;;;;;;;20.32;69.03;95958.66;4351239;32;20203;-66
2023/09/29 08:28:25;;;;;;;1.63;1.53;;;;;;;20.35;70.09;95958.00;4364883;32;20196;-67
2023/09/29 08:30:50;;;;;;;8.07;2.20;;;;;;;20.32;70.30;95955.19;4336066;32;20192;-66
2023/09/29 08:33:17;;;;;;;2.03;1.30;;;;;;;20.35;69.64;95958.00;4357395;32;20205;-67
2023/09/29 08:35:42;;;;;;;1.17;1.07;;;;;;;20.36;70.68;95964.97;4360890;32;20273;-63
2023/09/29 08:38:09;;;;;;;0.70;0.70;;;;;;;20.31;69.19;95969.78;4358509;32;20173;-63
2023/09/29 08:40:41;;;;;;;0.50;0.50;;;;;;;19.94;67.39;95971.72;4344370;32;20216;-63
2023/09/29 08:43:12;;;;;;;1.57;1.47;;;;;;;19.73;67.85;95972.62;4359420;32;20280;-63
2023/09/29 08:45:46;;;;;;;1.17;1.17;;;;;;;19.52;68.53;95971.91;4382616;32;20173;-63
2023/09/29 08:48:13;;;;;;;1.10;1.10;;;;;;;19.33;69.21;95977.00;4359958;32;20204;-63
2023/09/29 08:50:55;;;;;;;1.00;0.90;;;;;;;19.31;69.41;95971.97;4365758;32;20192;-63
2023/09/29 08:53:25;;;;;;;0.80;0.80;;;;;;;19.22;69.78;95968.56;4363186;32;20251;-63
2023/09/29 08:56:05;;;;;;;4.07;1.37;;;;;;;19.09;70.72;95970.44;4350216;32;20184;-63
2023/09/29 08:58:32;;;;;;;0.30;0.30;;;;;;;19.12;70.60;95967.06;4291064;32;20193;-63
2023/09/29 09:01:01;;;;;;;1.10;1.03;;;;;;;19.17;70.31;95974.94;4340005;32;20185;-63
2023/09/29 09:03:30;;;;;;;1.80;1.70;;;;;;;19.06;71.06;95965.72;4348164;32;20185;-63
2023/09/29 09:05:57;;;;;;;0.70;0.70;;;;;;;19.05;71.41;95980.28;4339531;32;20189;-63
2023/09/29 09:08:27;;;;;;;1.23;1.03;;;;;;;19.15;71.09;95979.06;4358906;32;20223;-63
2023/09/29 09:11:01;;;;;;;1.57;1.40;;;;;;;19.22;70.78;95969.34;4359668;32;20204;-63
2023/09/29 09:13:27;;;;;;;1.03;1.03;;;;;;;19.19;71.07;95967.31;4347718;32;20192;-64
2023/09/29 09:16:00;;;;;;;2.10;1.60;;;;;;;19.19;72.03;95961.94;4365003;32;20184;-62
2023/09/29 09:18:27;;;;;;;1.07;1.07;;;;;;;19.37;69.98;95967.13;4345326;32;20262;-63
2023/09/29 09:20:55;;;;;;;1.33;1.20;;;;;;;19.40;69.79;95972.62;4360054;32;20223;-63
2023/09/29 09:23:21;;;;;;;1.20;1.20;;;;;;;19.45;69.54;95971.66;4350212;32;20260;-63
2023/09/29 09:25:47;;;;;;;0.90;0.90;;;;;;;19.48;69.22;95965.59;4366149;32;20181;-62
2023/09/29 09:28:23;;;;;;;2.83;1.40;;;;;;;19.56;69.42;95970.91;4361010;32;20264;-64
2023/09/29 09:31:01;;;;;;;1.30;1.20;;;;;;;19.56;70.22;95967.41;4369944;32;20195;-63
2023/09/29 09:33:31;;;;;;;1.67;1.57;;;;;;;19.64;68.93;95966.53;4355596;32;20215;-63
2023/09/29 09:36:11;;;;;;;2.20;1.53;;;;;;;19.67;68.87;95962.41;4345596;32;20184;-62
2023/09/29 09:38:37;;;;;;;0.87;0.87;;;;;;;19.66;69.52;95961.59;4288298;32;20189;-62
2023/09/29 09:41:05;;;;;;;0.37;0.37;;;;;;;19.73;67.91;95956.47;4344944;32;20251;-62
2023/09/29 09:43:37;;;;;;;1.30;0.97;;;;;;;19.69;69.17;95952.88;4360427;32;20199;-62
2023/09/29 09:46:16;;;;;;;0.80;0.80;;;;;;;19.77;69.11;95957.34;4346851;32;20227;-63
2023/09/29 09:48:55;;;;;;;1.13;0.97;;;;;;;19.90;69.58;95956.25;4335986;32;20251;-63
2023/09/29 09:51:36;;;;;;;0.97;0.97;;;;;;;19.91;68.29;95951.63;4365442;32;20216;-62
2023/09/29 09:54:04;;;;;;;0.47;0.47;;;;;;;20.00;67.45;95960.38;4353104;32;20207;-62
2023/09/29 09:57:00;;;;;;;0.50;0.50;;;;;;;20.03;67.48;95950.84;4337639;32;20219;-63
2023/09/29 09:59:28;;;;;;;1.97;1.87;;;;;;;19.98;67.71;95951.06;4362262;32;20173;-62
2023/09/29 10:01:58;;;;;;;0.73;0.73;;;;;;;19.96;68.64;95954.09;4353715;32;20189;-63
2023/09/29 10:04:28;;;;;;;1.37;1.27;;;;;;;20.02;68.94;95951.97;4345488;32;20192;-63
2023/09/29 10:06:57;;;;;;;0.70;0.70;;;;;;;19.98;69.17;95945.66;4354861;32;20207;-62
2023/09/29 10:09:24;;;;;;;0.77;0.77;;;;;;;20.07;66.79;95947.13;4351896;32;20188;-63
2023/09/29 10:12:00;;;;;;;1.40;1.30;;;;;;;20.18;66.86;95950.12;4362987;32;20200;-63
2023/09/29 10:14:27;;;;;;;0.83;0.83;;;;;;;20.31;65.57;95957.09;4346397;32;20185;-63
2023/09/29 10:17:02;;;;;;;0.77;0.77;;;;;;;20.27;66.09;95950.03;4340340;32;20184;-63
2023/09/29 10:19:35;;;;;;;1.50;1.23;;;;;;;20.32;64.85;95953.28;4358881;32;20203;-64
2023/09/29 10:22:02;;;;;;;1.13;1.13;;;;;;;20.29;65.45;95948.56;4344727;32;20310;-64
2023/09/29 10:24:28;;;;;;;1.00;1.00;;;;;;;20.29;65.36;95951.25;4352016;32;20182;-64
2023/09/29 10:26:59;;;;;;;1.17;1.17;;;;;;;20.38;63.42;95935.75;4352410;32;20184;-63
2023/09/29 10:29:37;;;;;;;0.90;0.90;;;;;;;20.42;62.93;95939.34;4334924;32;20256;-64
2023/09/29 10:32:15;;;;;;;1.63;1.53;;;;;;;20.39;63.44;95940.03;4345241;32;20215;-64
2023/09/29 10:34:41;;;;;;;1.20;1.20;;;;;;;20.37;65.08;95936.88;4311614;32;20224;-64
2023/09/29 10:37:09;;;;;;;0.73;0.73;;;;;;;20.46;65.25;95928.69;4339938;32;20260;-64
2023/09/29 10:39:37;;;;;;;0.97;0.87;;;;;;;20.59;64.43;95933.69;4351879;32;20248;-64
2023/09/29 10:42:14;;;;;;;0.83;0.70;;;;;;;20.57;64.76;95930.56;4348217;32;20204;-64
2023/09/29 10:44:52;;;;;;;1.27;0.90;;;;;;;20.63;64.12;95927.59;4345961;32;20224;-64
2023/09/29 10:47:38;;;;;;;0.97;0.97;;;;;;;20.75;62.02;95914.88;4350772;32;20286;-63
2023/09/29 10:50:07;;;;;;;0.63;0.63;;;;;;;20.90;62.08;95916.03;4345401;32;20244;-64
2023/09/29 10:52:33;;;;;;;2.43;1.23;;;;;;;20.82;62.61;95915.06;4308743;32;20228;-64
2023/09/29 10:54:59;;;;;;;0.97;0.80;;;;;;;20.81;63.07;95912.69;4360855;32;20242;-64
2023/09/29 10:57:26;;;;;;;1.00;1.00;;;;;;;20.74;63.04;95909.81;4345685;32;20189;-64
2023/09/29 10:59:59;;;;;;;0.87;0.87;;;;;;;20.75;63.50;95914.09;4346767;32;20193;-64
2023/09/29 11:02:30;;;;;;;1.27;1.10;;;;;;;20.76;64.44;95915.66;4345328;32;20192;-64
2023/09/29 11:05:14;;;;;;;0.30;0.30;;;;;;;20.79;60.62;95915.75;4347137;32;20204;-64
2023/09/29 11:07:52;;;;;;;1.10;0.93;;;;;;;20.85;60.46;95913.59;4340167;32;20235;-64
2023/09/29 11:10:20;;;;;;;1.03;0.87;;;;;;;20.82;59.41;95908.87;4351990;32;20227;-64
2023/09/29 11:12:50;;;;;;;1.60;1.50;;;;;;;20.89;59.76;95903.69;4350414;32;20242;-64
2023/09/29 11:15:18;;;;;;;1.07;0.97;;;;;;;20.83;60.06;95899.66;4351469;32;20215;-64
2023/09/29 11:17:50;;;;;;;0.40;0.40;;;;;;;20.86;60.05;95898.97;4366242;32;20199;-64
2023/09/29 11:20:26;;;;;;;1.00;1.00;;;;;;;20.92;58.96;95898.38;4358430;32;20185;-64
2023/09/29 11:23:16;;;;;;;0.70;0.70;;;;;;;21.00;58.22;95891.25;4346299;32;20490;-64
2023/09/29 11:25:54;;;;;;;0.30;0.30;;;;;;;21.05;57.75;95877.50;4363114;32;20185;-65
2023/09/29 11:28:26;;;;;;;0.97;0.60;;;;;;;20.96;59.34;95878.81;4352793;32;20243;-64
2023/09/29 11:31:15;;;;;;;0.60;0.60;;;;;;;21.05;59.37;95876.72;4348436;32;20228;-63
2023/09/29 11:33:44;;;;;;;1.80;1.70;;;;;;;21.12;57.00;95869.59;4318435;32;20291;-64
2023/09/29 11:36:23;;;;;;;1.57;1.47;;;;;;;21.16;58.35;95870.47;4351606;32;20252;-63
2023/09/29 11:38:50;;;;;;;1.10;1.10;;;;;;;21.11;60.30;95868.03;4330841;32;20293;-64
2023/09/29 11:41:17;;;;;;;1.13;1.13;;;;;;;21.18;59.37;95868.22;4319990;32;20188;-64
2023/09/29 11:43:47;;;;;;;0.73;0.73;;;;;;;21.14;60.35;95866.56;4347050;32;20204;-64
2023/09/29 11:46:15;;;;;;;1.10;1.00;;;;;;;21.17;60.19;95861.25;4352769;32;20189;-63